sensor_id;sensor_type;location;lat;lon;timestamp;P1;durP1;ratioP1;P2;durP2;ratioP2
36669;SDS011;22662;47.412;9.742;2022-07-18T00:00:43;3.05;;;2.30;;
36669;SDS011;22662;47.412;9.742;2022-07-18T00:03:09;3.05;;;2.28;;
36669;SDS011;22662;47.412;9.742;2022-07-18T00:05:35;2.63;;;2.42;;
36669;SDS011;22662;47.412;9.742;2022-07-18T00:08:00;2.78;;;2.20;;
36669;SDS011;22662;47.412;9.742;2022-07-18T00:10:26;3.50;;;2.55;;
36669;SDS011;22662;47.412;9.742;2022-07-18T00:12:52;2.47;;;2.25;;
36669;SDS011;22662;47.412;9.742;2022-07-18T00:15:18;2.50;;;2.28;;
36669;SDS011;22662;47.412;9.742;2022-07-18T00:17:44;2.67;;;2.30;;
36669;SDS011;22662;47.412;9.742;2022-07-18T00:20:10;2.50;;;2.30;;
36669;SDS011;22662;47.412;9.742;2022-07-18T00:22:37;2.70;;;2.50;;
36669;SDS011;22662;47.412;9.742;2022-07-18T00:25:03;2.40;;;2.20;;
36669;SDS011;22662;47.412;9.742;2022-07-18T00:27:30;4.03;;;2.40;;
36669;SDS011;22662;47.412;9.742;2022-07-18T00:29:56;3.17;;;2.50;;
36669;SDS011;22662;47.412;9.742;2022-07-18T00:32:21;3.17;;;2.38;;
36669;SDS011;22662;47.412;9.742;2022-07-18T00:34:47;2.80;;;2.53;;
36669;SDS011;22662;47.412;9.742;2022-07-18T00:37:13;3.00;;;2.40;;
36669;SDS011;22662;47.412;9.742;2022-07-18T00:39:39;3.65;;;2.40;;
36669;SDS011;22662;47.412;9.742;2022-07-18T00:42:04;2.38;;;2.17;;
36669;SDS011;22662;47.412;9.742;2022-07-18T00:44:30;3.17;;;2.47;;
36669;SDS011;22662;47.412;9.742;2022-07-18T00:46:58;4.20;;;2.45;;
36669;SDS011;22662;47.412;9.742;2022-07-18T00:49:26;2.88;;;2.35;;
36669;SDS011;22662;47.412;9.742;2022-07-18T00:51:53;3.65;;;2.50;;
36669;SDS011;22662;47.412;9.742;2022-07-18T00:54:19;3.33;;;2.40;;
36669;SDS011;22662;47.412;9.742;2022-07-18T00:56:45;3.30;;;2.50;;
36669;SDS011;22662;47.412;9.742;2022-07-18T00:59:14;2.65;;;2.40;;
36669;SDS011;22662;47.412;9.742;2022-07-18T01:01:40;3.65;;;2.45;;
36669;SDS011;22662;47.412;9.742;2022-07-18T01:04:11;2.97;;;2.53;;
36669;SDS011;22662;47.412;9.742;2022-07-18T01:06:48;3.10;;;2.10;;
36669;SDS011;22662;47.412;9.742;2022-07-18T01:09:16;2.60;;;2.38;;
36669;SDS011;22662;47.412;9.742;2022-07-18T01:11:43;3.72;;;2.22;;
36669;SDS011;22662;47.412;9.742;2022-07-18T01:14:09;2.88;;;2.25;;
36669;SDS011;22662;47.412;9.742;2022-07-18T01:16:36;2.65;;;2.17;;
36669;SDS011;22662;47.412;9.742;2022-07-18T01:19:02;2.75;;;2.30;;
36669;SDS011;22662;47.412;9.742;2022-07-18T01:21:29;2.63;;;2.40;;
36669;SDS011;22662;47.412;9.742;2022-07-18T01:23:55;2.55;;;2.28;;
36669;SDS011;22662;47.412;9.742;2022-07-18T01:26:21;2.47;;;2.28;;
36669;SDS011;22662;47.412;9.742;2022-07-18T01:28:47;4.55;;;2.70;;
36669;SDS011;22662;47.412;9.742;2022-07-18T01:31:15;5.72;;;2.63;;
36669;SDS011;22662;47.412;9.742;2022-07-18T01:33:41;2.60;;;2.40;;
36669;SDS011;22662;47.412;9.742;2022-07-18T01:36:07;2.92;;;2.50;;
36669;SDS011;22662;47.412;9.742;2022-07-18T01:38:34;3.35;;;2.40;;
36669;SDS011;22662;47.412;9.742;2022-07-18T01:41:00;2.50;;;2.30;;
36669;SDS011;22662;47.412;9.742;2022-07-18T01:43:27;4.05;;;2.80;;
36669;SDS011;22662;47.412;9.742;2022-07-18T01:45:53;2.53;;;2.20;;
36669;SDS011;22662;47.412;9.742;2022-07-18T01:48:20;3.83;;;2.33;;
36669;SDS011;22662;47.412;9.742;2022-07-18T01:50:48;2.53;;;2.25;;
36669;SDS011;22662;47.412;9.742;2022-07-18T01:53:15;3.00;;;2.42;;
36669;SDS011;22662;47.412;9.742;2022-07-18T01:55:41;2.60;;;2.40;;
36669;SDS011;22662;47.412;9.742;2022-07-18T01:58:07;3.00;;;2.70;;
36669;SDS011;22662;47.412;9.742;2022-07-18T02:00:33;2.67;;;2.47;;
36669;SDS011;22662;47.412;9.742;2022-07-18T02:02:59;2.55;;;2.35;;
36669;SDS011;22662;47.412;9.742;2022-07-18T02:05:24;3.65;;;2.85;;
36669;SDS011;22662;47.412;9.742;2022-07-18T02:07:50;2.70;;;2.50;;
36669;SDS011;22662;47.412;9.742;2022-07-18T02:10:17;3.10;;;2.80;;
36669;SDS011;22662;47.412;9.742;2022-07-18T02:12:45;3.13;;;2.80;;
36669;SDS011;22662;47.412;9.742;2022-07-18T02:15:12;3.20;;;2.58;;
36669;SDS011;22662;47.412;9.742;2022-07-18T02:17:39;2.95;;;2.60;;
36669;SDS011;22662;47.412;9.742;2022-07-18T02:20:06;3.08;;;2.50;;
36669;SDS011;22662;47.412;9.742;2022-07-18T02:22:33;2.95;;;2.53;;
36669;SDS011;22662;47.412;9.742;2022-07-18T02:24:59;2.60;;;2.38;;
36669;SDS011;22662;47.412;9.742;2022-07-18T02:27:25;3.75;;;2.78;;
36669;SDS011;22662;47.412;9.742;2022-07-18T02:29:51;3.40;;;2.90;;
36669;SDS011;22662;47.412;9.742;2022-07-18T02:32:17;2.92;;;2.53;;
36669;SDS011;22662;47.412;9.742;2022-07-18T02:34:43;4.15;;;2.88;;
36669;SDS011;22662;47.412;9.742;2022-07-18T02:37:09;2.90;;;2.70;;
36669;SDS011;22662;47.412;9.742;2022-07-18T02:39:35;3.10;;;2.80;;
36669;SDS011;22662;47.412;9.742;2022-07-18T02:42:02;3.42;;;2.40;;
36669;SDS011;22662;47.412;9.742;2022-07-18T02:44:27;2.97;;;2.10;;
36669;SDS011;22662;47.412;9.742;2022-07-18T02:46:53;2.90;;;2.30;;
36669;SDS011;22662;47.412;9.742;2022-07-18T02:49:20;3.75;;;2.70;;
36669;SDS011;22662;47.412;9.742;2022-07-18T02:54:25;3.47;;;2.40;;
36669;SDS011;22662;47.412;9.742;2022-07-18T02:56:52;2.55;;;2.35;;
36669;SDS011;22662;47.412;9.742;2022-07-18T02:59:18;3.67;;;2.80;;
36669;SDS011;22662;47.412;9.742;2022-07-18T03:01:43;3.25;;;2.40;;
36669;SDS011;22662;47.412;9.742;2022-07-18T03:04:09;2.97;;;2.78;;
36669;SDS011;22662;47.412;9.742;2022-07-18T03:06:35;2.47;;;2.28;;
36669;SDS011;22662;47.412;9.742;2022-07-18T03:09:01;2.40;;;2.20;;
36669;SDS011;22662;47.412;9.742;2022-07-18T03:11:28;2.60;;;2.40;;
36669;SDS011;22662;47.412;9.742;2022-07-18T03:13:54;3.85;;;2.85;;
36669;SDS011;22662;47.412;9.742;2022-07-18T03:16:19;2.63;;;2.40;;
36669;SDS011;22662;47.412;9.742;2022-07-18T03:18:45;2.92;;;2.42;;
36669;SDS011;22662;47.412;9.742;2022-07-18T03:21:11;2.60;;;2.40;;
36669;SDS011;22662;47.412;9.742;2022-07-18T03:23:37;2.50;;;2.25;;
36669;SDS011;22662;47.412;9.742;2022-07-18T03:26:03;3.25;;;2.55;;
36669;SDS011;22662;47.412;9.742;2022-07-18T03:28:28;2.78;;;2.58;;
36669;SDS011;22662;47.412;9.742;2022-07-18T03:30:54;3.13;;;2.40;;
36669;SDS011;22662;47.412;9.742;2022-07-18T03:33:23;3.67;;;3.20;;
36669;SDS011;22662;47.412;9.742;2022-07-18T03:35:50;4.00;;;3.28;;
36669;SDS011;22662;47.412;9.742;2022-07-18T03:38:16;3.97;;;3.17;;
36669;SDS011;22662;47.412;9.742;2022-07-18T03:40:41;3.78;;;3.00;;
36669;SDS011;22662;47.412;9.742;2022-07-18T03:43:07;4.30;;;3.15;;
36669;SDS011;22662;47.412;9.742;2022-07-18T03:45:33;3.28;;;2.97;;
36669;SDS011;22662;47.412;9.742;2022-07-18T03:47:58;3.88;;;3.15;;
36669;SDS011;22662;47.412;9.742;2022-07-18T03:50:24;3.10;;;2.63;;
36669;SDS011;22662;47.412;9.742;2022-07-18T03:52:52;2.90;;;2.60;;
36669;SDS011;22662;47.412;9.742;2022-07-18T03:55:18;2.83;;;2.60;;
36669;SDS011;22662;47.412;9.742;2022-07-18T03:57:44;3.15;;;2.85;;
36669;SDS011;22662;47.412;9.742;2022-07-18T04:00:10;3.00;;;2.70;;
36669;SDS011;22662;47.412;9.742;2022-07-18T04:02:38;2.80;;;2.60;;
36669;SDS011;22662;47.412;9.742;2022-07-18T04:05:05;3.30;;;2.40;;
36669;SDS011;22662;47.412;9.742;2022-07-18T04:07:31;3.75;;;3.00;;
36669;SDS011;22662;47.412;9.742;2022-07-18T04:09:56;2.88;;;2.60;;
36669;SDS011;22662;47.412;9.742;2022-07-18T04:12:22;3.78;;;2.97;;
36669;SDS011;22662;47.412;9.742;2022-07-18T04:14:48;3.28;;;2.88;;
36669;SDS011;22662;47.412;9.742;2022-07-18T04:17:14;3.35;;;3.05;;
36669;SDS011;22662;47.412;9.742;2022-07-18T04:19:39;4.00;;;3.20;;
36669;SDS011;22662;47.412;9.742;2022-07-18T04:22:05;2.67;;;2.47;;
36669;SDS011;22662;47.412;9.742;2022-07-18T04:24:31;4.03;;;3.10;;
36669;SDS011;22662;47.412;9.742;2022-07-18T04:26:57;3.67;;;2.75;;
36669;SDS011;22662;47.412;9.742;2022-07-18T04:29:22;3.78;;;3.08;;
36669;SDS011;22662;47.412;9.742;2022-07-18T04:31:48;5.57;;;3.25;;
36669;SDS011;22662;47.412;9.742;2022-07-18T04:34:14;3.72;;;3.10;;
36669;SDS011;22662;47.412;9.742;2022-07-18T04:36:40;3.65;;;3.08;;
36669;SDS011;22662;47.412;9.742;2022-07-18T04:39:06;6.32;;;3.08;;
36669;SDS011;22662;47.412;9.742;2022-07-18T04:41:32;4.45;;;2.95;;
36669;SDS011;22662;47.412;9.742;2022-07-18T04:43:57;3.30;;;3.00;;
36669;SDS011;22662;47.412;9.742;2022-07-18T04:46:23;5.30;;;3.30;;
36669;SDS011;22662;47.412;9.742;2022-07-18T04:48:49;4.03;;;2.92;;
36669;SDS011;22662;47.412;9.742;2022-07-18T04:51:15;3.22;;;2.92;;
36669;SDS011;22662;47.412;9.742;2022-07-18T04:53:40;3.30;;;3.00;;
36669;SDS011;22662;47.412;9.742;2022-07-18T04:56:06;3.38;;;2.75;;
36669;SDS011;22662;47.412;9.742;2022-07-18T04:58:32;3.63;;;2.58;;
36669;SDS011;22662;47.412;9.742;2022-07-18T05:00:58;2.55;;;2.35;;
36669;SDS011;22662;47.412;9.742;2022-07-18T05:03:24;11.93;;;2.40;;
36669;SDS011;22662;47.412;9.742;2022-07-18T05:05:49;2.78;;;2.20;;
36669;SDS011;22662;47.412;9.742;2022-07-18T05:08:15;4.05;;;2.00;;
36669;SDS011;22662;47.412;9.742;2022-07-18T05:10:41;3.17;;;2.20;;
36669;SDS011;22662;47.412;9.742;2022-07-18T05:13:07;2.92;;;2.13;;
36669;SDS011;22662;47.412;9.742;2022-07-18T05:15:33;3.22;;;2.30;;
36669;SDS011;22662;47.412;9.742;2022-07-18T05:17:58;3.33;;;2.22;;
36669;SDS011;22662;47.412;9.742;2022-07-18T05:20:25;2.92;;;2.15;;
36669;SDS011;22662;47.412;9.742;2022-07-18T05:22:52;2.35;;;2.15;;
36669;SDS011;22662;47.412;9.742;2022-07-18T05:25:20;3.38;;;2.20;;
36669;SDS011;22662;47.412;9.742;2022-07-18T05:27:49;2.35;;;1.73;;
36669;SDS011;22662;47.412;9.742;2022-07-18T05:30:16;2.92;;;2.20;;
36669;SDS011;22662;47.412;9.742;2022-07-18T05:32:42;6.90;;;2.28;;
36669;SDS011;22662;47.412;9.742;2022-07-18T05:35:09;4.20;;;1.83;;
36669;SDS011;22662;47.412;9.742;2022-07-18T05:37:37;4.22;;;2.13;;
36669;SDS011;22662;47.412;9.742;2022-07-18T05:40:04;3.70;;;2.20;;
36669;SDS011;22662;47.412;9.742;2022-07-18T05:42:31;2.80;;;2.05;;
36669;SDS011;22662;47.412;9.742;2022-07-18T05:44:58;5.88;;;2.38;;
36669;SDS011;22662;47.412;9.742;2022-07-18T05:47:23;6.85;;;2.63;;
36669;SDS011;22662;47.412;9.742;2022-07-18T05:49:49;4.55;;;2.33;;
36669;SDS011;22662;47.412;9.742;2022-07-18T05:52:15;3.42;;;2.70;;
36669;SDS011;22662;47.412;9.742;2022-07-18T05:54:41;3.75;;;2.28;;
36669;SDS011;22662;47.412;9.742;2022-07-18T05:57:06;2.83;;;2.50;;
36669;SDS011;22662;47.412;9.742;2022-07-18T05:59:32;3.92;;;2.50;;
36669;SDS011;22662;47.412;9.742;2022-07-18T06:01:58;3.85;;;2.60;;
36669;SDS011;22662;47.412;9.742;2022-07-18T06:04:24;4.07;;;2.33;;
36669;SDS011;22662;47.412;9.742;2022-07-18T06:06:50;3.75;;;2.75;;
36669;SDS011;22662;47.412;9.742;2022-07-18T06:09:16;4.93;;;2.78;;
36669;SDS011;22662;47.412;9.742;2022-07-18T06:11:42;3.85;;;2.38;;
36669;SDS011;22662;47.412;9.742;2022-07-18T06:14:08;4.07;;;2.35;;
36669;SDS011;22662;47.412;9.742;2022-07-18T06:16:34;4.88;;;2.25;;
36669;SDS011;22662;47.412;9.742;2022-07-18T06:19:01;4.60;;;2.30;;
36669;SDS011;22662;47.412;9.742;2022-07-18T06:21:28;4.85;;;2.30;;
36669;SDS011;22662;47.412;9.742;2022-07-18T06:23:54;7.25;;;2.80;;
36669;SDS011;22662;47.412;9.742;2022-07-18T06:26:20;2.95;;;2.20;;
36669;SDS011;22662;47.412;9.742;2022-07-18T06:28:47;5.40;;;2.67;;
36669;SDS011;22662;47.412;9.742;2022-07-18T06:31:13;4.18;;;2.53;;
36669;SDS011;22662;47.412;9.742;2022-07-18T06:33:42;3.65;;;2.28;;
36669;SDS011;22662;47.412;9.742;2022-07-18T06:36:08;5.03;;;2.95;;
36669;SDS011;22662;47.412;9.742;2022-07-18T06:38:36;5.45;;;2.40;;
36669;SDS011;22662;47.412;9.742;2022-07-18T06:41:06;3.97;;;2.28;;
36669;SDS011;22662;47.412;9.742;2022-07-18T06:43:33;3.33;;;2.47;;
36669;SDS011;22662;47.412;9.742;2022-07-18T06:45:59;5.93;;;2.38;;
36669;SDS011;22662;47.412;9.742;2022-07-18T06:48:25;3.67;;;2.88;;
36669;SDS011;22662;47.412;9.742;2022-07-18T06:50:51;4.85;;;2.97;;
36669;SDS011;22662;47.412;9.742;2022-07-18T06:53:17;3.65;;;2.50;;
36669;SDS011;22662;47.412;9.742;2022-07-18T06:55:42;5.05;;;2.60;;
36669;SDS011;22662;47.412;9.742;2022-07-18T06:58:08;3.78;;;2.50;;
36669;SDS011;22662;47.412;9.742;2022-07-18T07:00:34;3.08;;;2.78;;
36669;SDS011;22662;47.412;9.742;2022-07-18T07:03:00;4.97;;;2.65;;
36669;SDS011;22662;47.412;9.742;2022-07-18T07:05:26;4.65;;;2.72;;
36669;SDS011;22662;47.412;9.742;2022-07-18T07:07:52;4.38;;;2.80;;
36669;SDS011;22662;47.412;9.742;2022-07-18T07:10:18;5.85;;;3.33;;
36669;SDS011;22662;47.412;9.742;2022-07-18T07:12:45;7.93;;;3.00;;
36669;SDS011;22662;47.412;9.742;2022-07-18T07:15:15;6.30;;;3.60;;
36669;SDS011;22662;47.412;9.742;2022-07-18T07:17:42;5.00;;;3.33;;
36669;SDS011;22662;47.412;9.742;2022-07-18T07:20:08;4.18;;;3.15;;
36669;SDS011;22662;47.412;9.742;2022-07-18T07:22:45;4.82;;;2.80;;
36669;SDS011;22662;47.412;9.742;2022-07-18T07:25:16;3.05;;;2.70;;
36669;SDS011;22662;47.412;9.742;2022-07-18T07:27:43;4.32;;;3.08;;
36669;SDS011;22662;47.412;9.742;2022-07-18T07:30:09;4.25;;;3.47;;
36669;SDS011;22662;47.412;9.742;2022-07-18T07:32:36;4.03;;;3.13;;
36669;SDS011;22662;47.412;9.742;2022-07-18T07:35:03;4.43;;;3.05;;
36669;SDS011;22662;47.412;9.742;2022-07-18T07:37:32;5.85;;;2.80;;
36669;SDS011;22662;47.412;9.742;2022-07-18T07:39:58;5.80;;;3.42;;
36669;SDS011;22662;47.412;9.742;2022-07-18T07:42:24;3.60;;;2.63;;
36669;SDS011;22662;47.412;9.742;2022-07-18T07:44:50;4.78;;;3.13;;
36669;SDS011;22662;47.412;9.742;2022-07-18T07:47:16;5.18;;;3.25;;
36669;SDS011;22662;47.412;9.742;2022-07-18T07:49:42;3.42;;;3.00;;
36669;SDS011;22662;47.412;9.742;2022-07-18T07:52:08;5.18;;;3.13;;
36669;SDS011;22662;47.412;9.742;2022-07-18T07:54:35;5.18;;;3.22;;
36669;SDS011;22662;47.412;9.742;2022-07-18T07:57:01;5.65;;;3.13;;
36669;SDS011;22662;47.412;9.742;2022-07-18T07:59:27;3.78;;;3.17;;
36669;SDS011;22662;47.412;9.742;2022-07-18T08:01:53;5.13;;;3.03;;
36669;SDS011;22662;47.412;9.742;2022-07-18T08:04:18;4.05;;;3.30;;
36669;SDS011;22662;47.412;9.742;2022-07-18T08:06:44;3.28;;;2.97;;
36669;SDS011;22662;47.412;9.742;2022-07-18T08:09:10;3.33;;;2.80;;
36669;SDS011;22662;47.412;9.742;2022-07-18T08:11:36;3.92;;;2.83;;
36669;SDS011;22662;47.412;9.742;2022-07-18T08:14:01;3.38;;;3.03;;
36669;SDS011;22662;47.412;9.742;2022-07-18T08:16:27;2.70;;;2.47;;
36669;SDS011;22662;47.412;9.742;2022-07-18T08:18:53;2.95;;;2.70;;
36669;SDS011;22662;47.412;9.742;2022-07-18T08:21:19;3.83;;;2.92;;
36669;SDS011;22662;47.412;9.742;2022-07-18T08:23:44;4.82;;;3.03;;
36669;SDS011;22662;47.412;9.742;2022-07-18T08:26:12;3.70;;;2.85;;
36669;SDS011;22662;47.412;9.742;2022-07-18T08:28:38;4.93;;;2.92;;
36669;SDS011;22662;47.412;9.742;2022-07-18T08:31:03;3.88;;;2.88;;
36669;SDS011;22662;47.412;9.742;2022-07-18T08:33:29;3.75;;;2.67;;
36669;SDS011;22662;47.412;9.742;2022-07-18T08:35:55;3.00;;;2.70;;
36669;SDS011;22662;47.412;9.742;2022-07-18T08:38:21;4.60;;;2.95;;
36669;SDS011;22662;47.412;9.742;2022-07-18T08:40:47;3.53;;;2.60;;
36669;SDS011;22662;47.412;9.742;2022-07-18T08:43:14;6.32;;;3.30;;
36669;SDS011;22662;47.412;9.742;2022-07-18T08:45:41;6.97;;;2.90;;
36669;SDS011;22662;47.412;9.742;2022-07-18T08:48:08;4.28;;;2.83;;
36669;SDS011;22662;47.412;9.742;2022-07-18T08:50:34;3.70;;;2.85;;
36669;SDS011;22662;47.412;9.742;2022-07-18T08:53:00;4.35;;;2.58;;
36669;SDS011;22662;47.412;9.742;2022-07-18T08:55:26;6.10;;;3.20;;
36669;SDS011;22662;47.412;9.742;2022-07-18T08:57:55;4.50;;;2.60;;
36669;SDS011;22662;47.412;9.742;2022-07-18T09:00:22;3.10;;;2.78;;
36669;SDS011;22662;47.412;9.742;2022-07-18T09:03:00;3.13;;;2.80;;
36669;SDS011;22662;47.412;9.742;2022-07-18T09:05:27;3.10;;;2.70;;
36669;SDS011;22662;47.412;9.742;2022-07-18T09:08:14;4.25;;;2.78;;
36669;SDS011;22662;47.412;9.742;2022-07-18T09:13:50;6.28;;;2.58;;
36669;SDS011;22662;47.412;9.742;2022-07-18T09:16:10;3.90;;;2.95;;
36669;SDS011;22662;47.412;9.742;2022-07-18T09:18:43;3.72;;;2.88;;
36669;SDS011;22662;47.412;9.742;2022-07-18T09:21:12;3.25;;;2.90;;
36669;SDS011;22662;47.412;9.742;2022-07-18T09:23:43;5.47;;;3.38;;
36669;SDS011;22662;47.412;9.742;2022-07-18T09:26:37;5.32;;;3.90;;
36669;SDS011;22662;47.412;9.742;2022-07-18T09:29:08;5.70;;;3.78;;
36669;SDS011;22662;47.412;9.742;2022-07-18T09:31:38;4.45;;;3.40;;
36669;SDS011;22662;47.412;9.742;2022-07-18T09:34:10;5.88;;;3.90;;
36669;SDS011;22662;47.412;9.742;2022-07-18T09:36:36;6.88;;;3.80;;
36669;SDS011;22662;47.412;9.742;2022-07-18T09:39:20;7.70;;;3.50;;
36669;SDS011;22662;47.412;9.742;2022-07-18T09:41:46;5.90;;;3.97;;
36669;SDS011;22662;47.412;9.742;2022-07-18T09:44:15;7.18;;;3.88;;
36669;SDS011;22662;47.412;9.742;2022-07-18T09:46:58;5.68;;;3.67;;
36669;SDS011;22662;47.412;9.742;2022-07-18T09:49:28;9.23;;;4.50;;
36669;SDS011;22662;47.412;9.742;2022-07-18T09:52:04;6.55;;;4.13;;
36669;SDS011;22662;47.412;9.742;2022-07-18T09:54:39;6.53;;;3.95;;
36669;SDS011;22662;47.412;9.742;2022-07-18T09:57:06;11.85;;;4.20;;
36669;SDS011;22662;47.412;9.742;2022-07-18T09:59:32;5.53;;;3.80;;
36669;SDS011;22662;47.412;9.742;2022-07-18T10:02:00;5.40;;;4.03;;
36669;SDS011;22662;47.412;9.742;2022-07-18T10:04:27;4.75;;;3.53;;
36669;SDS011;22662;47.412;9.742;2022-07-18T10:06:53;6.82;;;3.92;;
36669;SDS011;22662;47.412;9.742;2022-07-18T10:09:19;3.88;;;3.40;;
36669;SDS011;22662;47.412;9.742;2022-07-18T10:11:45;4.53;;;3.47;;
36669;SDS011;22662;47.412;9.742;2022-07-18T10:14:11;3.80;;;3.25;;
36669;SDS011;22662;47.412;9.742;2022-07-18T10:16:37;4.85;;;3.42;;
36669;SDS011;22662;47.412;9.742;2022-07-18T10:19:03;4.28;;;3.80;;
36669;SDS011;22662;47.412;9.742;2022-07-18T10:21:29;5.68;;;3.40;;
36669;SDS011;22662;47.412;9.742;2022-07-18T10:23:56;3.80;;;3.33;;
36669;SDS011;22662;47.412;9.742;2022-07-18T10:26:26;4.18;;;3.42;;
36669;SDS011;22662;47.412;9.742;2022-07-18T10:33:48;4.00;;;3.33;;
36669;SDS011;22662;47.412;9.742;2022-07-18T10:36:15;5.65;;;3.78;;
36669;SDS011;22662;47.412;9.742;2022-07-18T10:41:26;9.32;;;3.72;;
36669;SDS011;22662;47.412;9.742;2022-07-18T10:43:52;5.50;;;3.50;;
36669;SDS011;22662;47.412;9.742;2022-07-18T10:46:18;3.60;;;3.10;;
36669;SDS011;22662;47.412;9.742;2022-07-18T10:48:47;3.42;;;2.90;;
36669;SDS011;22662;47.412;9.742;2022-07-18T10:51:18;3.92;;;3.30;;
36669;SDS011;22662;47.412;9.742;2022-07-18T10:58:57;4.22;;;3.35;;
36669;SDS011;22662;47.412;9.742;2022-07-18T11:01:24;4.82;;;2.70;;
36669;SDS011;22662;47.412;9.742;2022-07-18T11:23:01;4.45;;;3.03;;
36669;SDS011;22662;47.412;9.742;2022-07-18T11:25:48;4.22;;;2.80;;
36669;SDS011;22662;47.412;9.742;2022-07-18T11:28:21;3.38;;;2.65;;
36669;SDS011;22662;47.412;9.742;2022-07-18T11:31:04;5.63;;;2.92;;
36669;SDS011;22662;47.412;9.742;2022-07-18T11:33:33;4.72;;;3.08;;
36669;SDS011;22662;47.412;9.742;2022-07-18T11:38:29;3.92;;;2.92;;
36669;SDS011;22662;47.412;9.742;2022-07-18T11:40:55;4.20;;;2.95;;
36669;SDS011;22662;47.412;9.742;2022-07-18T11:43:24;3.53;;;3.13;;
36669;SDS011;22662;47.412;9.742;2022-07-18T11:45:58;3.25;;;3.00;;
36669;SDS011;22662;47.412;9.742;2022-07-18T11:48:32;5.35;;;2.40;;
36669;SDS011;22662;47.412;9.742;2022-07-18T11:50:59;9.20;;;2.80;;
36669;SDS011;22662;47.412;9.742;2022-07-18T11:53:25;4.18;;;3.08;;
36669;SDS011;22662;47.412;9.742;2022-07-18T11:55:52;3.45;;;2.85;;
36669;SDS011;22662;47.412;9.742;2022-07-18T11:58:19;4.13;;;2.95;;
36669;SDS011;22662;47.412;9.742;2022-07-18T12:00:45;6.03;;;3.00;;
36669;SDS011;22662;47.412;9.742;2022-07-18T12:05:46;3.20;;;2.60;;
36669;SDS011;22662;47.412;9.742;2022-07-18T12:16:06;5.18;;;2.90;;
36669;SDS011;22662;47.412;9.742;2022-07-18T12:18:32;3.42;;;2.78;;
36669;SDS011;22662;47.412;9.742;2022-07-18T12:21:10;4.97;;;2.28;;
36669;SDS011;22662;47.412;9.742;2022-07-18T12:23:36;4.25;;;2.60;;
36669;SDS011;22662;47.412;9.742;2022-07-18T12:26:01;3.78;;;2.60;;
36669;SDS011;22662;47.412;9.742;2022-07-18T12:28:28;6.63;;;3.08;;
36669;SDS011;22662;47.412;9.742;2022-07-18T12:30:54;2.80;;;2.20;;
36669;SDS011;22662;47.412;9.742;2022-07-18T12:33:20;3.45;;;2.20;;
36669;SDS011;22662;47.412;9.742;2022-07-18T12:35:54;4.00;;;2.60;;
36669;SDS011;22662;47.412;9.742;2022-07-18T12:38:21;3.20;;;2.50;;
36669;SDS011;22662;47.412;9.742;2022-07-18T12:40:51;5.10;;;2.20;;
36669;SDS011;22662;47.412;9.742;2022-07-18T12:43:26;5.15;;;2.35;;
36669;SDS011;22662;47.412;9.742;2022-07-18T12:45:59;2.75;;;2.20;;
36669;SDS011;22662;47.412;9.742;2022-07-18T12:48:26;2.10;;;1.90;;
36669;SDS011;22662;47.412;9.742;2022-07-18T12:51:01;3.50;;;1.80;;
36669;SDS011;22662;47.412;9.742;2022-07-18T12:53:30;5.97;;;1.92;;
36669;SDS011;22662;47.412;9.742;2022-07-18T12:55:57;3.85;;;1.90;;
36669;SDS011;22662;47.412;9.742;2022-07-18T12:58:23;2.00;;;1.80;;
36669;SDS011;22662;47.412;9.742;2022-07-18T13:00:49;2.78;;;1.90;;
36669;SDS011;22662;47.412;9.742;2022-07-18T13:03:15;1.60;;;1.40;;
36669;SDS011;22662;47.412;9.742;2022-07-18T13:05:42;2.08;;;1.35;;
36669;SDS011;22662;47.412;9.742;2022-07-18T13:08:08;1.48;;;1.38;;
36669;SDS011;22662;47.412;9.742;2022-07-18T13:10:35;1.45;;;1.35;;
36669;SDS011;22662;47.412;9.742;2022-07-18T13:13:05;1.90;;;1.80;;
36669;SDS011;22662;47.412;9.742;2022-07-18T13:15:33;2.50;;;1.77;;
36669;SDS011;22662;47.412;9.742;2022-07-18T13:17:59;2.03;;;1.40;;
36669;SDS011;22662;47.412;9.742;2022-07-18T13:20:25;2.72;;;1.70;;
36669;SDS011;22662;47.412;9.742;2022-07-18T13:22:52;4.57;;;1.80;;
36669;SDS011;22662;47.412;9.742;2022-07-18T13:25:18;2.15;;;1.65;;
36669;SDS011;22662;47.412;9.742;2022-07-18T13:27:45;2.40;;;1.65;;
36669;SDS011;22662;47.412;9.742;2022-07-18T13:30:11;2.78;;;1.60;;
36669;SDS011;22662;47.412;9.742;2022-07-18T13:32:37;2.95;;;1.60;;
36669;SDS011;22662;47.412;9.742;2022-07-18T13:35:03;2.05;;;1.50;;
36669;SDS011;22662;47.412;9.742;2022-07-18T13:37:29;1.95;;;1.60;;
36669;SDS011;22662;47.412;9.742;2022-07-18T13:39:55;2.28;;;1.60;;
36669;SDS011;22662;47.412;9.742;2022-07-18T13:42:21;4.90;;;1.67;;
36669;SDS011;22662;47.412;9.742;2022-07-18T13:44:47;2.92;;;1.50;;
36669;SDS011;22662;47.412;9.742;2022-07-18T13:47:13;2.22;;;1.80;;
36669;SDS011;22662;47.412;9.742;2022-07-18T13:49:41;1.77;;;1.63;;
36669;SDS011;22662;47.412;9.742;2022-07-18T13:52:07;3.17;;;1.80;;
36669;SDS011;22662;47.412;9.742;2022-07-18T13:54:34;2.08;;;1.40;;
36669;SDS011;22662;47.412;9.742;2022-07-18T13:56:59;1.85;;;1.20;;
36669;SDS011;22662;47.412;9.742;2022-07-18T13:59:25;1.23;;;1.10;;
36669;SDS011;22662;47.412;9.742;2022-07-18T14:01:51;3.25;;;1.30;;
36669;SDS011;22662;47.412;9.742;2022-07-18T14:04:17;1.42;;;1.13;;
36669;SDS011;22662;47.412;9.742;2022-07-18T14:06:44;1.48;;;1.30;;
36669;SDS011;22662;47.412;9.742;2022-07-18T14:09:10;1.55;;;1.00;;
36669;SDS011;22662;47.412;9.742;2022-07-18T14:11:36;1.65;;;0.93;;
36669;SDS011;22662;47.412;9.742;2022-07-18T14:14:03;1.88;;;0.98;;
36669;SDS011;22662;47.412;9.742;2022-07-18T14:16:29;1.13;;;0.80;;
36669;SDS011;22662;47.412;9.742;2022-07-18T14:18:56;1.48;;;0.93;;
36669;SDS011;22662;47.412;9.742;2022-07-18T14:21:22;1.27;;;1.02;;
36669;SDS011;22662;47.412;9.742;2022-07-18T14:23:48;3.13;;;1.42;;
36669;SDS011;22662;47.412;9.742;2022-07-18T14:26:14;1.50;;;0.90;;
36669;SDS011;22662;47.412;9.742;2022-07-18T14:28:41;1.60;;;0.80;;
36669;SDS011;22662;47.412;9.742;2022-07-18T14:31:07;1.77;;;1.10;;
36669;SDS011;22662;47.412;9.742;2022-07-18T14:33:32;1.30;;;1.20;;
36669;SDS011;22662;47.412;9.742;2022-07-18T14:35:58;4.13;;;0.98;;
36669;SDS011;22662;47.412;9.742;2022-07-18T14:38:24;1.77;;;1.30;;
36669;SDS011;22662;47.412;9.742;2022-07-18T14:40:50;3.67;;;1.23;;
36669;SDS011;22662;47.412;9.742;2022-07-18T14:43:16;1.50;;;1.00;;
36669;SDS011;22662;47.412;9.742;2022-07-18T14:45:42;1.80;;;1.30;;
36669;SDS011;22662;47.412;9.742;2022-07-18T14:48:08;3.53;;;1.30;;
36669;SDS011;22662;47.412;9.742;2022-07-18T14:50:34;2.05;;;1.40;;
36669;SDS011;22662;47.412;9.742;2022-07-18T14:53:00;1.92;;;1.02;;
36669;SDS011;22662;47.412;9.742;2022-07-18T14:55:26;1.40;;;1.30;;
36669;SDS011;22662;47.412;9.742;2022-07-18T14:57:52;2.67;;;1.25;;
36669;SDS011;22662;47.412;9.742;2022-07-18T15:00:18;3.00;;;1.30;;
36669;SDS011;22662;47.412;9.742;2022-07-18T15:02:43;1.42;;;1.23;;
36669;SDS011;22662;47.412;9.742;2022-07-18T15:05:09;1.95;;;1.75;;
36669;SDS011;22662;47.412;9.742;2022-07-18T15:07:36;4.50;;;1.45;;
36669;SDS011;22662;47.412;9.742;2022-07-18T15:10:03;3.40;;;1.70;;
36669;SDS011;22662;47.412;9.742;2022-07-18T15:12:29;1.63;;;1.40;;
36669;SDS011;22662;47.412;9.742;2022-07-18T15:14:56;1.50;;;1.40;;
36669;SDS011;22662;47.412;9.742;2022-07-18T15:17:23;2.80;;;1.60;;
36669;SDS011;22662;47.412;9.742;2022-07-18T15:19:49;1.52;;;1.33;;
36669;SDS011;22662;47.412;9.742;2022-07-18T15:22:16;2.47;;;1.60;;
36669;SDS011;22662;47.412;9.742;2022-07-18T15:24:42;2.28;;;1.25;;
36669;SDS011;22662;47.412;9.742;2022-07-18T15:27:07;6.63;;;1.45;;
36669;SDS011;22662;47.412;9.742;2022-07-18T15:29:33;3.47;;;1.40;;
36669;SDS011;22662;47.412;9.742;2022-07-18T15:31:59;3.25;;;1.50;;
36669;SDS011;22662;47.412;9.742;2022-07-18T15:34:27;2.63;;;1.40;;
36669;SDS011;22662;47.412;9.742;2022-07-18T15:36:53;2.28;;;1.50;;